Time;durP1;ratioP1;P1;durP2;ratioP2;P2;SDS_P1;SDS_P2;PMS_P1;PMS_P2;Temp;Humidity;BMP_temperature;BMP_pressure;BME280_temperature;BME280_humidity;BME280_pressure;Samples;Min_cycle;Max_cycle;Signal;HPM_P1;HPM_P2
2022/07/07 00:00:12;;;;;;;15.78;7.00;;;;;;;24.00;50.13;100179.05;1715039;82;21212;-57
2022/07/07 00:03:18;;;;;;;13.70;6.90;;;;;;;23.96;50.19;100179.82;1696921;82;21224;-57
2022/07/07 00:06:26;;;;;;;8.03;6.33;;;;;;;23.92;50.25;100184.25;1714977;83;21260;-58
2022/07/07 00:09:33;;;;;;;14.70;7.20;;;;;;;23.87;50.31;100177.20;1714952;82;21249;-56
2022/07/07 00:12:40;;;;;;;12.05;7.35;;;;;;;23.84;50.38;100176.34;1715039;83;21375;-56
2022/07/07 00:15:46;;;;;;;13.35;7.47;;;;;;;23.79;50.41;100185.54;1715020;83;21343;-56
2022/07/07 00:18:51;;;;;;;15.38;6.97;;;;;;;23.73;50.47;100178.23;1714910;82;21312;-56
2022/07/07 00:21:57;;;;;;;8.93;7.15;;;;;;;23.68;50.55;100175.92;1714761;83;21225;-56
2022/07/07 00:25:03;;;;;;;11.38;7.15;;;;;;;23.62;50.64;100175.05;1714852;82;21610;-56
2022/07/07 00:28:09;;;;;;;12.55;7.75;;;;;;;23.57;50.74;100174.45;1714926;82;21240;-56
2022/07/07 00:31:16;;;;;;;12.07;7.17;;;;;;;23.52;50.86;100177.20;1714952;83;21725;-56
2022/07/07 00:34:21;;;;;;;14.63;7.08;;;;;;;23.47;50.89;100179.94;1714884;82;21236;-57
2022/07/07 00:37:28;;;;;;;15.15;7.42;;;;;;;23.42;50.93;100179.06;1714959;83;21192;-58
2022/07/07 00:40:35;;;;;;;11.97;6.83;;;;;;;23.36;50.96;100182.89;1715015;83;21185;-57
2022/07/07 00:43:45;;;;;;;10.72;7.17;;;;;;;23.30;51.08;100175.57;1714955;82;21359;-57
2022/07/07 00:46:54;;;;;;;14.53;7.90;;;;;;;23.23;51.15;100178.54;1714944;83;21228;-57
2022/07/07 00:50:02;;;;;;;16.93;7.55;;;;;;;23.18;51.30;100173.47;1716158;82;21304;-57
2022/07/07 00:53:08;;;;;;;11.95;7.17;;;;;;;23.12;51.37;100170.34;1745930;80;21417;-56
2022/07/07 00:56:18;;;;;;;10.63;6.97;;;;;;;23.09;51.46;100187.05;1750326;81;21189;-57
2022/07/07 00:59:25;;;;;;;12.03;7.25;;;;;;;23.04;51.51;100177.78;1723795;82;21201;-57
2022/07/07 01:02:33;;;;;;;17.12;7.08;;;;;;;22.99;51.64;100181.91;1732665;82;21260;-56
2022/07/07 01:05:41;;;;;;;14.93;6.92;;;;;;;22.93;51.71;100177.38;1730651;82;21229;-56
2022/07/07 01:08:47;;;;;;;11.48;7.05;;;;;;;22.89;51.80;100181.77;1734985;81;21253;-56
2022/07/07 01:12:02;;;;;;;12.23;7.33;;;;;;;22.84;51.89;100181.70;1746036;81;21241;-56
2022/07/07 01:15:11;;;;;;;14.50;7.42;;;;;;;22.79;51.99;100178.31;1769906;80;21209;-57
2022/07/07 01:18:17;;;;;;;12.33;7.65;;;;;;;22.76;52.09;100183.56;1736433;82;21322;-56
2022/07/07 01:21:24;;;;;;;10.58;6.87;;;;;;;22.72;52.19;100175.43;1734479;82;21228;-56
2022/07/07 01:24:30;;;;;;;12.25;6.97;;;;;;;22.70;52.30;100186.00;1781788;79;21193;-56
2022/07/07 01:27:38;;;;;;;15.70;7.10;;;;;;;22.70;52.37;100188.25;1760595;80;21241;-57
2022/07/07 01:30:45;;;;;;;14.38;7.90;;;;;;;22.69;52.48;100187.11;1768284;81;21367;-56
2022/07/07 01:33:52;;;;;;;14.05;6.62;;;;;;;22.66;52.50;100194.62;1776380;80;21748;-57
2022/07/07 01:36:58;;;;;;;16.30;6.65;;;;;;;22.64;52.56;100189.84;1776177;81;21174;-57
2022/07/07 01:40:06;;;;;;;11.50;6.65;;;;;;;22.63;52.65;100193.74;1776562;81;21205;-57
2022/07/07 01:43:12;;;;;;;11.97;6.55;;;;;;;22.60;52.72;100193.69;1777041;80;21418;-57
2022/07/07 01:46:20;;;;;;;10.75;6.00;;;;;;;22.63;52.77;100200.72;1769112;81;21579;-57
2022/07/07 01:49:27;;;;;;;8.83;6.20;;;;;;;22.61;52.86;100191.17;1777148;80;21236;-57
2022/07/07 01:52:32;;;;;;;12.60;7.35;;;;;;;22.61;52.92;100206.52;1777326;80;21225;-57
2022/07/07 01:55:38;;;;;;;13.62;6.10;;;;;;;22.65;52.97;100206.86;1817329;78;21547;-56
2022/07/07 01:58:43;;;;;;;13.40;6.22;;;;;;;22.64;53.01;100205.19;1786172;80;21218;-57
2022/07/07 02:01:49;;;;;;;12.45;5.75;;;;;;;22.66;53.09;100201.02;1768721;80;21170;-57
2022/07/07 02:05:00;;;;;;;10.50;5.90;;;;;;;22.68;53.13;100203.55;1768054;79;21360;-56
2022/07/07 02:08:06;;;;;;;11.60;6.33;;;;;;;22.71;53.15;100198.84;1770516;79;21237;-57
2022/07/07 02:11:14;;;;;;;7.87;5.75;;;;;;;22.72;53.21;100201.37;1775002;79;21150;-57
2022/07/07 02:14:21;;;;;;;15.45;5.97;;;;;;;22.76;53.21;100205.89;1766984;81;21355;-57
2022/07/07 02:17:28;;;;;;;12.23;5.72;;;;;;;22.78;53.24;100216.25;1770877;79;21234;-57
2022/07/07 02:20:34;;;;;;;7.95;5.67;;;;;;;22.81;53.25;100212.94;1764283;81;21190;-56
2022/07/07 02:23:42;;;;;;;16.48;5.97;;;;;;;22.85;53.28;100208.54;1737005;82;21261;-57
2022/07/07 02:26:48;;;;;;;8.13;5.95;;;;;;;22.88;53.30;100203.25;1733613;82;21197;-58
2022/07/07 02:29:54;;;;;;;12.88;5.90;;;;;;;22.91;53.29;100213.08;1736946;82;21206;-59
2022/07/07 02:33:01;;;;;;;10.80;5.37;;;;;;;22.95;53.27;100219.27;1711043;82;21184;-58
2022/07/07 02:36:06;;;;;;;10.15;5.87;;;;;;;22.99;53.27;100216.23;1740689;82;21190;-58
2022/07/07 02:39:13;;;;;;;9.95;5.72;;;;;;;23.03;53.26;100216.56;1775520;79;21209;-58
2022/07/07 02:42:20;;;;;;;13.00;6.42;;;;;;;23.05;53.25;100224.99;1790040;79;21174;-57
2022/07/07 02:45:27;;;;;;;11.90;5.67;;;;;;;23.08;53.21;100223.61;1766933;81;21182;-56
2022/07/07 02:48:34;;;;;;;10.65;5.72;;;;;;;23.12;53.21;100222.00;1767350;80;21209;-57
2022/07/07 02:51:42;;;;;;;11.63;5.87;;;;;;;23.15;53.22;100226.48;1768569;79;21199;-57
2022/07/07 02:54:47;;;;;;;10.40;5.95;;;;;;;23.19;53.19;100226.82;1774610;79;21225;-57
2022/07/07 02:57:54;;;;;;;12.20;5.95;;;;;;;23.22;53.20;100229.94;1791420;79;21386;-57
2022/07/07 03:01:01;;;;;;;13.90;5.78;;;;;;;23.24;53.19;100226.34;1798503;79;21244;-56
2022/07/07 03:04:07;;;;;;;11.95;5.45;;;;;;;23.28;53.20;100226.66;1799050;80;21256;-56
2022/07/07 03:07:13;;;;;;;14.35;5.95;;;;;;;23.30;53.17;100235.64;1767417;80;21225;-56
2022/07/07 03:10:19;;;;;;;10.32;5.92;;;;;;;23.32;53.21;100247.41;1764292;81;21198;-56
2022/07/07 03:13:26;;;;;;;9.45;6.22;;;;;;;23.35;53.22;100236.55;1737054;82;21351;-57
2022/07/07 03:16:35;;;;;;;7.28;5.47;;;;;;;23.35;53.19;100236.55;1715031;82;21204;-57
2022/07/07 03:19:43;;;;;;;12.53;5.62;;;;;;;23.38;53.21;100234.63;1736962;82;21599;-57
2022/07/07 03:22:49;;;;;;;18.12;6.37;;;;;;;23.40;53.23;100234.36;1736450;82;21236;-57
2022/07/07 03:25:56;;;;;;;15.28;6.42;;;;;;;23.41;53.30;100232.70;1776218;81;21208;-57
2022/07/07 03:29:02;;;;;;;9.78;5.42;;;;;;;23.43;53.29;100236.08;1742643;81;21224;-55
2022/07/07 03:32:09;;;;;;;13.45;5.65;;;;;;;23.46;53.32;100243.09;1732135;82;21264;-57
2022/07/07 03:35:16;;;;;;;15.60;6.22;;;;;;;23.51;53.34;100246.80;1732117;82;21186;-56
2022/07/07 03:38:22;;;;;;;15.30;5.83;;;;;;;23.54;53.37;100238.42;1695247;83;21236;-56
2022/07/07 03:41:27;;;;;;;12.82;6.05;;;;;;;23.59;53.41;100242.67;1735458;82;21203;-56
2022/07/07 03:44:33;;;;;;;10.32;6.28;;;;;;;23.64;53.40;100240.75;1727429;82;21205;-56
2022/07/07 03:47:40;;;;;;;14.18;5.80;;;;;;;23.73;53.42;100246.72;1746509;81;21221;-57
2022/07/07 03:50:46;;;;;;;12.70;5.08;;;;;;;23.83;53.43;100252.42;1747431;79;21599;-56
2022/07/07 03:53:53;;;;;;;12.05;6.15;;;;;;;23.94;53.46;100259.80;1794189;78;21229;-59
2022/07/07 03:57:00;;;;;;;10.45;6.05;;;;;;;24.03;53.46;100259.62;1790432;79;21324;-56
2022/07/07 04:00:11;;;;;;;11.50;5.70;;;;;;;24.14;53.50;100257.19;1771060;79;21213;-56
2022/07/07 04:03:20;;;;;;;9.18;5.67;;;;;;;24.24;53.49;100253.63;1797823;78;21628;-55
2022/07/07 04:06:31;;;;;;;8.03;5.75;;;;;;;24.33;53.49;100262.66;1789053;79;21180;-55
2022/07/07 04:09:35;;;;;;;12.35;6.15;;;;;;;24.41;53.46;100259.91;1791969;79;21247;-56
2022/07/07 04:12:40;;;;;;;18.80;15.80;;;;;;;24.50;53.46;100257.73;1797390;79;21184;-56
2022/07/07 04:15:47;;;;;;;9.93;7.45;;;;;;;24.60;53.45;100266.22;1773068;79;21148;-55
2022/07/07 04:18:53;;;;;;;8.20;5.60;;;;;;;24.69;53.45;100269.36;1793895;80;21342;-55
2022/07/07 04:22:00;;;;;;;9.68;5.90;;;;;;;24.78;53.40;100265.78;1790132;80;21176;-57
2022/07/07 04:25:05;;;;;;;10.55;5.47;;;;;;;24.85;53.41;100266.94;1785885;79;21200;-56
2022/07/07 04:28:12;;;;;;;12.23;5.70;;;;;;;24.93;53.40;100271.48;1790517;80;21258;-56
2022/07/07 04:31:19;;;;;;;10.95;6.12;;;;;;;25.03;53.39;100265.09;1795359;80;21217;-57
2022/07/07 04:34:25;;;;;;;11.22;5.58;;;;;;;25.12;53.37;100272.42;1799308;79;21738;-56
2022/07/07 04:37:35;;;;;;;15.38;6.05;;;;;;;25.24;53.36;100278.63;1799220;79;21161;-57
2022/07/07 04:40:48;;;;;;;11.18;6.33;;;;;;;25.34;53.35;100274.50;1808083;79;21196;-56
2022/07/07 04:43:54;;;;;;;11.68;6.50;;;;;;;25.45;53.30;100279.84;1799261;78;21189;-58
2022/07/07 04:47:01;;;;;;;12.73;6.17;;;;;;;25.58;53.25;100286.34;1807977;79;21181;-56
2022/07/07 04:50:10;;;;;;;12.13;5.28;;;;;;;25.67;53.18;100287.48;1807868;78;21189;-56
2022/07/07 04:53:20;;;;;;;7.10;5.77;;;;;;;25.79;53.12;100279.67;1801022;78;21165;-55
2022/07/07 04:56:36;;;;;;;8.18;5.90;;;;;;;25.91;53.04;100278.02;1800418;78;21387;-55
2022/07/07 04:59:41;;;;;;;14.38;7.28;;;;;;;26.03;52.94;100281.41;1753272;81;21241;-54
2022/07/07 05:02:51;;;;;;;14.80;7.30;;;;;;;26.14;52.90;100280.30;1760518;81;21750;-55
2022/07/07 05:06:00;;;;;;;11.53;6.85;;;;;;;26.26;52.81;100280.84;1773919;80;21232;-55
2022/07/07 05:09:06;;;;;;;10.82;7.05;;;;;;;26.34;52.66;100283.09;1803115;78;21232;-54
2022/07/07 05:12:12;;;;;;;14.63;6.42;;;;;;;26.39;52.54;100281.69;1764082;81;21759;-52
2022/07/07 05:15:21;;;;;;;17.98;7.03;;;;;;;26.46;52.47;100278.05;1763009;80;21920;-55
2022/07/07 05:18:29;;;;;;;14.53;8.65;;;;;;;26.53;52.36;100291.22;1752733;79;21204;-56
2022/07/07 05:21:35;;;;;;;11.80;7.45;;;;;;;26.56;52.26;100289.25;1748445;79;21165;-52
2022/07/07 05:24:42;;;;;;;13.93;8.60;;;;;;;26.61;52.25;100290.66;1746285;81;21599;-52
2022/07/07 05:27:49;;;;;;;11.50;7.72;;;;;;;26.65;52.18;100296.03;1747774;81;21235;-52
2022/07/07 05:30:58;;;;;;;13.20;7.50;;;;;;;26.64;52.14;100285.05;1772010;81;21181;-53
2022/07/07 05:34:09;;;;;;;12.50;7.80;;;;;;;26.68;52.16;100294.61;1785295;79;21713;-53
2022/07/07 05:37:19;;;;;;;17.32;7.85;;;;;;;26.71;52.13;100296.30;1803546;79;21193;-53
2022/07/07 05:40:28;;;;;;;15.15;8.38;;;;;;;26.79;52.13;100290.66;1765743;81;21181;-53
2022/07/07 05:43:33;;;;;;;18.40;8.60;;;;;;;26.86;52.13;100292.03;1805529;78;21209;-53
2022/07/07 05:46:40;;;;;;;10.28;8.23;;;;;;;26.92;52.21;100298.50;1805747;79;21697;-53
2022/07/07 05:49:54;;;;;;;15.72;8.63;;;;;;;26.96;52.28;100294.83;1805942;78;21189;-53
2022/07/07 05:53:10;;;;;;;15.50;8.50;;;;;;;26.99;52.34;100301.87;1783622;78;21243;-53
2022/07/07 05:56:18;;;;;;;13.38;8.98;;;;;;;27.04;52.40;100306.89;1803567;79;21228;-53
2022/07/07 05:59:26;;;;;;;16.65;8.60;;;;;;;27.11;52.50;100294.80;1777763;79;21208;-52
2022/07/07 06:02:32;;;;;;;12.53;8.25;;;;;;;27.23;52.54;100293.90;1775221;80;21209;-52
2022/07/07 06:05:41;;;;;;;13.20;9.30;;;;;;;27.33;52.60;100288.28;1767711;80;21185;-53
2022/07/07 06:08:49;;;;;;;12.90;8.68;;;;;;;27.44;52.68;100295.53;1707801;82;21217;-53
2022/07/07 06:11:56;;;;;;;9.90;8.08;;;;;;;27.55;52.68;100292.09;1764846;81;21808;-53
2022/07/07 06:14:56;;;;;;;15.00;9.38;;;;;;;27.67;52.75;100292.61;1766621;80;21226;-53
2022/07/07 06:18:07;;;;;;;11.95;9.18;;;;;;;27.78;52.82;100299.86;1764334;80;21218;-54
2022/07/07 06:21:19;;;;;;;11.40;8.33;;;;;;;27.87;52.88;100302.33;1736018;82;21746;-58
2022/07/07 06:24:35;;;;;;;15.88;8.98;;;;;;;27.95;52.94;100300.89;1737613;81;21237;-53
2022/07/07 06:27:46;;;;;;;13.28;9.68;;;;;;;28.00;53.01;100307.90;1737774;82;21216;-54
2022/07/07 06:30:52;;;;;;;17.60;13.28;;;;;;;28.07;53.15;100313.47;1737941;82;21201;-51
2022/07/07 06:33:59;;;;;;;16.00;9.55;;;;;;;28.16;53.16;100313.14;1732941;81;21206;-52
2022/07/07 06:37:07;;;;;;;15.83;9.73;;;;;;;28.24;53.27;100318.71;1702114;82;21264;-50
2022/07/07 06:40:18;;;;;;;17.20;10.05;;;;;;;28.31;53.33;100322.02;1756016;80;21209;-51
2022/07/07 06:43:26;;;;;;;12.47;9.68;;;;;;;28.33;53.35;100333.28;1776648;79;21347;-51
2022/07/07 06:46:33;;;;;;;16.07;9.88;;;;;;;28.30;53.24;100331.61;1737578;81;21221;-51
2022/07/07 06:49:40;;;;;;;13.22;9.98;;;;;;;28.27;53.25;100337.83;1763757;80;21733;-54
2022/07/07 06:52:50;;;;;;;16.70;10.00;;;;;;;28.26;53.19;100346.02;1769999;80;21181;-54
2022/07/07 06:56:00;;;;;;;21.70;10.95;;;;;;;28.14;53.13;100349.19;1758909;80;21728;-53
2022/07/07 06:59:09;;;;;;;17.27;10.95;;;;;;;28.05;53.16;100343.88;1766921;79;21225;-53
2022/07/07 07:02:18;;;;;;;17.62;9.85;;;;;;;28.10;53.27;100349.48;1777321;79;21371;-53
2022/07/07 07:05:27;;;;;;;14.30;9.68;;;;;;;28.13;53.31;100359.34;1784660;79;21415;-51
2022/07/07 07:08:37;;;;;;;13.90;9.70;;;;;;;28.11;53.31;100354.55;1776740;80;21225;-53
2022/07/07 07:11:52;;;;;;;14.10;10.50;;;;;;;28.05;53.39;100359.36;1776453;80;21189;-53
2022/07/07 07:15:21;;;;;;;12.13;9.53;;;;;;;28.02;53.41;100361.35;1775007;79;21178;-54
2022/07/07 07:18:40;;;;;;;13.70;9.33;;;;;;;27.93;53.47;100356.07;1745655;80;21261;-53
2022/07/07 07:21:48;;;;;;;10.93;9.35;;;;;;;27.93;53.53;100363.11;1745765;81;21733;-55
2022/07/07 07:24:54;;;;;;;9.98;8.70;;;;;;;27.89;53.56;100354.98;1708470;82;21248;-51
2022/07/07 07:28:04;;;;;;;12.45;8.60;;;;;;;27.86;53.48;100356.91;1708093;82;21260;-52
2022/07/07 07:31:11;;;;;;;10.45;8.40;;;;;;;27.84;53.51;100363.41;1730562;83;21164;-53
2022/07/07 07:34:17;;;;;;;12.28;8.50;;;;;;;27.88;53.54;100364.53;1767663;79;21189;-52
2022/07/07 07:37:23;;;;;;;9.68;8.38;;;;;;;27.96;53.60;100361.67;1781561;80;21172;-53
2022/07/07 07:40:33;;;;;;;13.05;7.95;;;;;;;28.06;53.56;100370.06;1778869;80;21210;-52
2022/07/07 07:43:42;;;;;;;13.40;8.03;;;;;;;28.12;53.46;100367.48;1768960;80;21288;-52
2022/07/07 07:46:48;;;;;;;13.22;8.68;;;;;;;28.14;53.45;100370.86;1708344;83;21386;-53
2022/07/07 07:49:57;;;;;;;9.95;8.13;;;;;;;28.19;53.40;100367.47;1693525;82;21237;-51
2022/07/07 07:53:08;;;;;;;13.08;8.65;;;;;;;28.17;53.37;100371.69;1735602;81;21285;-52
2022/07/07 07:56:15;;;;;;;9.58;8.30;;;;;;;28.14;53.30;100366.08;1802472;79;21440;-52
2022/07/07 07:59:21;;;;;;;11.75;9.08;;;;;;;28.19;53.35;100365.20;1782209;78;21762;-51
2022/07/07 08:02:28;;;;;;;10.10;8.78;;;;;;;28.20;53.35;100365.47;1762945;81;21798;-52
2022/07/07 08:05:38;;;;;;;12.20;8.88;;;;;;;28.24;53.38;100369.40;1755039;81;21260;-53
2022/07/07 08:08:48;;;;;;;11.18;8.60;;;;;;;28.30;53.44;100371.89;1766073;81;21406;-53
2022/07/07 08:11:55;;;;;;;10.20;8.58;;;;;;;28.33;53.47;100373.27;1747496;80;21187;-52
2022/07/07 08:15:03;;;;;;;12.03;8.25;;;;;;;28.39;53.54;100376.31;1768519;79;21781;-53
2022/07/07 08:18:09;;;;;;;9.70;7.78;;;;;;;28.51;53.53;100379.66;1736598;81;21328;-49
2022/07/07 08:21:15;;;;;;;11.45;8.40;;;;;;;28.59;53.39;100377.03;1737666;80;21752;-50
2022/07/07 08:24:22;;;;;;;13.15;8.40;;;;;;;28.66;53.28;100381.77;1773982;80;21224;-49
2022/07/07 08:27:29;;;;;;;12.68;7.80;;;;;;;28.72;53.22;100379.18;1771231;79;21785;-49
2022/07/07 08:30:36;;;;;;;9.60;8.60;;;;;;;28.81;53.24;100385.03;1711880;83;21216;-49
2022/07/07 08:33:42;;;;;;;10.20;8.08;;;;;;;28.90;53.18;100390.30;1745516;80;21781;-51
2022/07/07 08:36:52;;;;;;;9.85;8.08;;;;;;;29.14;53.52;100401.91;1764170;80;21536;-52
2022/07/07 08:40:00;;;;;;;10.58;8.23;;;;;;;29.14;53.52;100401.91;1771045;80;21710;-49
2022/07/07 08:43:09;;;;;;;10.75;8.15;;;;;;;29.23;53.08;100401.56;1782135;80;21531;-48
2022/07/07 08:46:18;;;;;;;13.08;8.83;;;;;;;29.33;53.09;100397.80;1779254;80;21197;-47
2022/07/07 08:49:25;;;;;;;10.68;8.03;;;;;;;29.48;53.04;100406.07;1746153;80;21279;-48
2022/07/07 08:52:36;;;;;;;11.67;8.37;;;;;;;29.55;53.09;100407.98;1737045;81;21446;-47
2022/07/07 08:55:43;;;;;;;8.68;7.33;;;;;;;29.57;52.90;100412.76;1751172;81;21237;-46
2022/07/07 08:58:52;;;;;;;10.88;8.08;;;;;;;29.57;52.74;100414.17;1767632;79;21356;-49
2022/07/07 09:02:09;;;;;;;9.15;7.72;;;;;;;29.60;52.67;100413.56;1735696;77;21264;-54
2022/07/07 09:05:18;;;;;;;11.25;7.35;;;;;;;29.65;52.59;100410.72;1693423;83;21615;-54
2022/07/07 09:08:27;;;;;;;14.68;8.08;;;;;;;29.70;52.62;100415.45;1727888;82;21268;-54
2022/07/07 09:11:39;;;;;;;9.95;6.87;;;;;;;29.80;52.42;100417.58;1742629;79;21750;-54
2022/07/07 09:14:50;;;;;;;9.40;7.35;;;;;;;29.90;52.48;100423.10;1761449;80;21188;-54
2022/07/07 09:17:59;;;;;;;11.22;8.20;;;;;;;29.98;52.36;100423.84;1761241;80;21177;-57
2022/07/07 09:21:05;;;;;;;9.93;7.42;;;;;;;30.01;52.27;100423.23;1761861;80;21204;-56
2022/07/07 09:24:13;;;;;;;9.55;6.78;;;;;;;30.03;52.26;100427.16;1743664;81;21503;-55
2022/07/07 09:27:19;;;;;;;9.05;7.28;;;;;;;30.05;52.19;100425.70;1760902;81;21711;-56
2022/07/07 09:30:45;;;;;;;;;;;;;;;30.06;52.16;100433.63;1752855;80;21834;-56
2022/07/07 09:33:55;;;;;;;8.75;7.80;;;;;;;30.04;52.06;100437.31;1723555;83;20226;-55
2022/07/07 09:40:29;;;;;;;8.58;7.58;;;;;;;30.00;52.06;100437.06;1714737;82;21248;-56
2022/07/07 09:43:40;;;;;;;8.83;7.58;;;;;;;30.04;52.04;100434.48;1735106;82;21264;-56
2022/07/07 09:46:47;;;;;;;10.68;8.15;;;;;;;30.13;52.10;100441.13;1724865;83;21554;-57
2022/07/07 09:50:15;;;;;;;9.18;8.13;;;;;;;30.19;51.96;100445.00;1743243;81;21781;-56
2022/07/07 09:53:21;;;;;;;9.80;8.00;;;;;;;30.18;51.88;100446.16;1730080;82;21243;-55
2022/07/07 09:56:34;;;;;;;12.37;8.00;;;;;;;30.13;51.82;100441.13;1726380;82;21232;-56
2022/07/07 09:59:41;;;;;;;10.45;7.85;;;;;;;30.06;51.78;100448.59;1751457;81;21260;-57
2022/07/07 10:02:50;;;;;;;9.95;8.30;;;;;;;30.05;51.92;100457.36;1778557;77;21371;-56
2022/07/07 10:05:58;;;;;;;10.08;8.05;;;;;;;30.23;52.08;100457.98;1772802;79;21189;-56
2022/07/07 10:09:21;;;;;;;11.05;7.22;;;;;;;30.42;51.89;100459.69;1780305;79;21354;-56
2022/07/07 10:12:33;;;;;;;11.05;7.08;;;;;;;30.52;51.81;100457.29;1772864;80;21209;-56
2022/07/07 10:15:39;;;;;;;9.30;7.55;;;;;;;30.65;51.77;100456.53;1731632;82;21224;-57
2022/07/07 10:18:48;;;;;;;10.05;7.78;;;;;;;30.71;51.61;100458.13;1724768;82;21209;-55
2022/07/07 10:21:56;;;;;;;13.78;7.87;;;;;;;30.77;51.54;100454.66;1700626;83;21185;-54
2022/07/07 10:25:05;;;;;;;9.43;7.03;;;;;;;30.75;51.32;100455.53;1717131;82;21301;-53
2022/07/07 10:28:10;;;;;;;8.38;7.58;;;;;;;30.73;51.35;100459.23;1784186;78;21231;-55
2022/07/07 10:31:32;;;;;;;9.08;7.60;;;;;;;30.72;51.22;100456.11;1783435;79;21289;-58
2022/07/07 10:34:38;;;;;;;10.40;8.20;;;;;;;30.50;50.97;100456.19;1769547;79;21184;-60
2022/07/07 10:37:53;;;;;;;9.80;7.83;;;;;;;30.35;51.09;100459.81;1790910;79;21717;-58
2022/07/07 10:41:01;;;;;;;11.38;8.15;;;;;;;30.31;51.18;100466.63;1776681;79;21187;-62
2022/07/07 10:44:11;;;;;;;9.98;8.10;;;;;;;30.38;51.28;100470.50;1724902;80;21228;-59
2022/07/07 10:47:29;;;;;;;9.90;7.92;;;;;;;30.43;51.25;100474.08;1754227;81;21233;-59
2022/07/07 10:50:39;;;;;;;8.78;7.45;;;;;;;30.49;51.14;100472.03;1764455;80;21221;-61
2022/07/07 10:53:46;;;;;;;8.98;7.05;;;;;;;30.55;51.08;100470.80;1737679;81;21260;-58
2022/07/07 10:57:08;;;;;;;7.92;7.12;;;;;;;30.59;51.00;100468.47;1685216;83;21214;-64
2022/07/07 11:00:22;;;;;;;13.55;7.72;;;;;;;30.69;50.86;100471.72;1747349;80;21209;-62
2022/07/07 11:03:30;;;;;;;8.85;7.95;;;;;;;30.83;50.87;100467.00;1762006;79;21538;-60
2022/07/07 11:06:37;;;;;;;8.88;7.40;;;;;;;30.95;50.87;100465.97;1785883;78;21224;-63
2022/07/07 11:10:05;;;;;;;9.13;7.17;;;;;;;31.08;50.88;100471.41;1803287;78;21402;-62
2022/07/07 11:13:46;;;;;;;10.13;8.35;;;;;;;31.19;50.85;100472.91;1788070;78;21750;-59
2022/07/07 11:16:52;;;;;;;9.93;7.90;;;;;;;31.12;50.50;100468.22;1799976;79;21629;-59
2022/07/07 11:20:03;;;;;;;;;;;;;;;31.05;50.62;100464.96;1764583;78;21185;-60
2022/07/07 11:23:18;;;;;;;9.58;8.15;;;;;;;30.92;50.51;100467.16;1770435;79;20249;-61
2022/07/07 11:26:34;;;;;;;13.93;9.95;;;;;;;30.73;50.64;100469.12;1742197;79;21238;-61
2022/07/07 11:29:41;;;;;;;14.80;9.53;;;;;;;30.59;50.61;100467.63;1766868;80;21264;-60
2022/07/07 11:32:51;;;;;;;9.55;8.40;;;;;;;30.49;50.76;100470.03;1759608;81;21209;-59
2022/07/07 11:35:58;;;;;;;11.00;8.08;;;;;;;30.40;50.68;100459.71;1747966;81;21201;-61
2022/07/07 11:39:11;;;;;;;8.38;7.17;;;;;;;30.43;50.92;100469.84;1764897;80;21217;-64
2022/07/07 11:42:17;;;;;;;9.13;8.13;;;;;;;30.49;50.91;100470.03;1761682;79;21256;-63
2022/07/07 11:45:36;;;;;;;10.78;8.55;;;;;;;30.53;50.87;100469.70;1749224;80;21170;-54
2022/07/07 11:49:03;;;;;;;10.82;8.13;;;;;;;30.50;50.92;100471.73;1739563;82;21292;-54
2022/07/07 11:52:12;;;;;;;9.78;8.78;;;;;;;30.49;50.84;100470.03;1750193;81;21225;-56
2022/07/07 11:55:19;;;;;;;11.30;9.63;;;;;;;30.39;50.83;100479.23;1752946;80;21729;-54
2022/07/07 11:58:29;;;;;;;14.30;9.88;;;;;;;30.28;50.88;100489.84;1782250;79;21354;-54
2022/07/07 12:01:38;;;;;;;11.20;9.30;;;;;;;30.12;50.94;100495.95;1769394;79;21197;-55
2022/07/07 12:04:47;;;;;;;12.90;10.40;;;;;;;30.00;51.08;100485.66;1763111;79;21185;-53
2022/07/07 12:08:05;;;;;;;13.30;9.88;;;;;;;30.00;51.18;100486.48;1739070;80;21212;-55
2022/07/07 12:11:12;;;;;;;15.32;9.30;;;;;;;29.98;51.31;100472.41;1736089;82;21382;-53
2022/07/07 12:14:19;;;;;;;11.12;9.48;;;;;;;29.96;51.34;100481.19;1760059;80;21212;-54
2022/07/07 12:17:48;;;;;;;11.48;10.25;;;;;;;29.94;51.31;100480.63;1743114;82;21206;-55
2022/07/07 12:21:07;;;;;;;10.78;9.78;;;;;;;29.91;51.45;100474.18;1785233;79;21169;-53
2022/07/07 12:24:17;;;;;;;17.40;10.48;;;;;;;29.92;51.42;100465.15;1758941;80;21813;-53
2022/07/07 12:27:26;;;;;;;10.93;9.78;;;;;;;29.96;51.63;100481.19;1749046;80;21770;-54
2022/07/07 12:31:01;;;;;;;11.30;9.40;;;;;;;29.93;51.67;100471.91;1754806;81;21191;-63
2022/07/07 12:34:23;;;;;;;12.80;9.18;;;;;;;29.93;51.66;100473.31;1768165;79;21225;-60
2022/07/07 12:37:47;;;;;;;10.80;9.00;;;;;;;29.80;51.44;100478.27;1794093;79;21267;-59
2022/07/07 12:40:55;;;;;;;11.50;9.58;;;;;;;29.70;51.47;100482.61;1766792;80;21754;-60
2022/07/07 12:44:10;;;;;;;9.93;8.93;;;;;;;29.71;51.56;100480.08;1749339;81;21204;-62
2022/07/07 12:47:18;;;;;;;12.37;9.05;;;;;;;29.69;51.51;100479.52;1750517;80;21244;-59
2022/07/07 12:50:25;;;;;;;10.72;8.43;;;;;;;29.70;51.51;100480.38;1766167;80;21165;-60
2022/07/07 12:53:31;;;;;;;10.20;8.90;;;;;;;29.72;51.53;100473.84;1768122;80;21206;-59
2022/07/07 12:56:44;;;;;;;13.83;9.20;;;;;;;29.68;51.47;100470.80;1757673;80;21271;-61
2022/07/07 12:59:52;;;;;;;10.75;8.68;;;;;;;29.64;51.45;100485.22;1767777;79;21190;-60
2022/07/07 13:02:59;;;;;;;13.30;8.88;;;;;;;29.31;50.93;100478.19;1775111;79;21707;-60
2022/07/07 13:06:06;;;;;;;13.38;9.43;;;;;;;29.31;50.93;100478.19;1755796;79;21243;-59
2022/07/07 13:09:11;;;;;;;13.85;9.85;;;;;;;29.15;51.21;100476.94;1782196;80;21221;-59
2022/07/07 13:12:21;;;;;;;12.47;8.58;;;;;;;28.97;51.43;100482.44;1793352;80;21186;-59
2022/07/07 13:15:27;;;;;;;9.80;8.63;;;;;;;28.75;51.49;100483.42;1763741;81;21173;-60
2022/07/07 13:18:37;;;;;;;11.73;9.08;;;;;;;28.62;51.60;100488.33;1743438;81;21208;-61
2022/07/07 13:21:42;;;;;;;11.45;9.38;;;;;;;28.35;51.61;100485.89;1732291;83;21508;-61
2022/07/07 13:24:49;;;;;;;11.45;9.53;;;;;;;28.19;51.79;100497.55;1741314;81;21190;-57
2022/07/07 13:27:55;;;;;;;10.75;9.53;;;;;;;28.04;51.99;100487.73;1742246;81;21223;-59
2022/07/07 13:31:03;;;;;;;11.60;9.60;;;;;;;28.00;52.10;100493.69;1760665;80;21157;-56
2022/07/07 13:34:18;;;;;;;11.73;9.58;;;;;;;27.97;52.29;100485.27;1773194;80;21145;-62
2022/07/07 13:37:26;;;;;;;11.25;9.35;;;;;;;28.12;52.36;100492.22;1771638;80;21279;-58
2022/07/07 13:40:34;;;;;;;10.68;9.63;;;;;;;28.21;52.43;100483.44;1767684;80;21192;-60
2022/07/07 13:43:40;;;;;;;11.50;8.98;;;;;;;28.23;52.45;100471.88;1773048;80;21740;-59
2022/07/07 13:46:46;;;;;;;13.60;10.40;;;;;;;28.27;52.49;100468.23;1779767;80;21150;-58
2022/07/07 13:49:59;;;;;;;11.68;9.78;;;;;;;28.21;52.36;100481.21;1766148;80;21271;-61
2022/07/07 13:53:08;;;;;;;16.95;10.10;;;;;;;27.95;52.33;100466.41;1763550;81;21180;-60
2022/07/07 13:56:16;;;;;;;14.20;9.65;;;;;;;27.97;52.66;100470.33;1766057;80;21359;-60
2022/07/07 13:59:24;;;;;;;11.12;9.20;;;;;;;28.05;52.74;100467.75;1714481;83;21273;-57
2022/07/07 14:02:33;;;;;;;12.13;9.93;;;;;;;28.08;52.62;100471.97;1762321;81;21149;-57
2022/07/07 14:05:41;;;;;;;12.33;10.15;;;;;;;28.10;52.71;100479.58;1763258;79;21169;-57
2022/07/07 14:08:48;;;;;;;13.30;10.48;;;;;;;28.07;52.66;100469.72;1782230;79;21255;-56
2022/07/07 14:11:57;;;;;;;11.22;10.10;;;;;;;28.02;52.70;100468.91;1782677;80;21279;-57
2022/07/07 14:15:04;;;;;;;12.13;9.88;;;;;;;27.94;52.71;100473.14;1791758;78;21201;-58
2022/07/07 14:18:12;;;;;;;11.80;10.65;;;;;;;27.82;52.72;100467.83;1795320;78;21224;-57
2022/07/07 14:21:23;;;;;;;12.82;10.82;;;;;;;27.72;52.81;100459.41;1781586;79;21221;-59
2022/07/07 14:24:33;;;;;;;12.50;11.18;;;;;;;27.64;52.85;100466.17;1799517;79;21201;-59
2022/07/07 14:27:45;;;;;;;13.20;11.10;;;;;;;27.44;52.84;100474.13;1767930;79;21617;-59
2022/07/07 14:30:56;;;;;;;13.50;10.95;;;;;;;27.29;52.97;100462.06;1768404;79;21229;-58
2022/07/07 14:34:05;;;;;;;13.18;11.12;;;;;;;27.09;53.09;100458.67;1758241;80;21586;-58